Time;durP1;ratioP1;P1;durP2;ratioP2;P2;SDS_P1;SDS_P2;PMS_P1;PMS_P2;Temp;Humidity;BMP_temperature;BMP_pressure;BME280_temperature;BME280_humidity;BME280_pressure;Samples;Min_cycle;Max_cycle;Signal;HPM_P1;HPM_P2
2022/12/26 00:01:32;;;;;;;6.63;5.93;;;8.60;99.90;;;;;;4995137;28;20494;-52
2022/12/26 00:03:59;;;;;;;6.07;5.47;;;8.60;99.90;;;;;;4989448;28;20548;-52
2022/12/26 00:06:29;;;;;;;6.10;5.00;;;8.60;99.90;;;;;;4991133;28;20479;-50
2022/12/26 00:08:56;;;;;;;6.03;5.17;;;8.70;99.90;;;;;;4993364;28;20461;-52
2022/12/26 00:11:24;;;;;;;5.63;5.13;;;8.70;99.90;;;;;;4994404;28;20535;-51
2022/12/26 00:13:54;;;;;;;6.13;5.47;;;8.60;99.90;;;;;;4994096;28;20484;-51
2022/12/26 00:16:22;;;;;;;5.53;5.03;;;8.60;99.90;;;;;;4993251;28;20845;-52
2022/12/26 00:18:49;;;;;;;5.97;5.20;;;8.70;99.90;;;;;;4997434;28;21014;-51
2022/12/26 00:21:17;;;;;;;7.90;5.50;;;8.70;99.90;;;;;;4989025;28;20464;-51
2022/12/26 00:23:45;;;;;;;6.27;5.27;;;8.60;99.90;;;;;;4997414;28;20548;-51
2022/12/26 00:26:14;;;;;;;5.80;5.00;;;8.70;99.90;;;;;;4985678;28;21065;-51
2022/12/26 00:28:42;;;;;;;6.17;5.10;;;8.70;99.90;;;;;;4996161;28;20547;-52
2022/12/26 00:31:11;;;;;;;12.53;5.87;;;8.70;99.90;;;;;;4990314;28;20485;-51
2022/12/26 00:33:39;;;;;;;9.63;5.40;;;8.70;99.90;;;;;;4993275;28;20901;-52
2022/12/26 00:36:08;;;;;;;5.33;4.90;;;8.70;99.90;;;;;;4992551;28;20565;-50
2022/12/26 00:38:36;;;;;;;7.03;4.60;;;8.70;99.90;;;;;;4999820;28;20460;-52
2022/12/26 00:41:05;;;;;;;6.47;3.90;;;8.70;99.90;;;;;;4990291;28;20606;-50
2022/12/26 00:43:32;;;;;;;5.43;4.93;;;8.80;99.90;;;;;;4987275;28;21288;-50
2022/12/26 00:45:59;;;;;;;4.43;4.13;;;8.80;99.90;;;;;;4989764;28;20495;-51
2022/12/26 00:48:26;;;;;;;5.17;4.73;;;8.80;99.90;;;;;;4996887;28;20555;-51
2022/12/26 00:50:52;;;;;;;5.43;4.70;;;8.80;99.90;;;;;;4986993;28;20904;-51
2022/12/26 00:53:19;;;;;;;5.30;4.80;;;8.80;99.90;;;;;;4998321;28;20527;-50
2022/12/26 00:55:46;;;;;;;5.00;4.40;;;8.80;99.90;;;;;;4992238;28;20612;-50
2022/12/26 00:58:14;;;;;;;4.50;4.13;;;8.90;99.90;;;;;;4985122;28;20468;-50
2022/12/26 01:00:41;;;;;;;6.27;5.60;;;8.90;99.90;;;;;;4993311;28;20460;-51
2022/12/26 01:03:09;;;;;;;5.17;4.67;;;8.90;99.90;;;;;;4988569;28;20867;-51
2022/12/26 01:05:40;;;;;;;11.30;4.77;;;8.90;99.90;;;;;;4988401;28;20480;-51
2022/12/26 01:08:07;;;;;;;8.90;4.90;;;8.90;99.90;;;;;;4991525;28;20476;-51
2022/12/26 01:10:34;;;;;;;4.20;3.80;;;8.90;99.90;;;;;;4989134;28;20469;-51
2022/12/26 01:13:00;;;;;;;5.97;4.83;;;8.90;99.90;;;;;;4991095;28;21468;-51
2022/12/26 01:15:28;;;;;;;5.80;5.00;;;8.90;99.90;;;;;;4989405;28;20567;-51
2022/12/26 01:17:55;;;;;;;5.00;4.50;;;9.00;99.90;;;;;;4992825;28;20468;-51
2022/12/26 01:20:21;;;;;;;7.20;4.20;;;8.90;99.90;;;;;;4993247;28;20500;-52
2022/12/26 01:22:48;;;;;;;4.80;4.30;;;8.90;99.90;;;;;;4995967;28;20566;-51
2022/12/26 01:25:14;;;;;;;5.13;4.40;;;9.00;99.90;;;;;;4990295;28;20560;-52
2022/12/26 01:27:41;;;;;;;4.67;3.73;;;9.00;99.90;;;;;;4993728;28;20468;-52
2022/12/26 01:30:08;;;;;;;7.40;4.43;;;9.00;99.90;;;;;;5000348;28;20541;-51
2022/12/26 01:32:36;;;;;;;4.13;3.63;;;9.00;99.90;;;;;;4984031;28;20539;-51
2022/12/26 01:35:03;;;;;;;5.60;4.07;;;9.00;99.90;;;;;;4991008;28;20575;-52
2022/12/26 01:37:30;;;;;;;5.77;3.97;;;9.10;99.90;;;;;;4991702;28;20552;-52
2022/12/26 01:39:56;;;;;;;4.33;3.90;;;9.10;99.80;;;;;;4987821;28;20552;-52
2022/12/26 01:42:25;;;;;;;9.60;4.83;;;9.10;98.30;;;;;;4992773;28;20551;-51
2022/12/26 01:45:00;;;;;;;4.97;4.47;;;9.10;97.50;;;;;;4991014;28;20543;-51
2022/12/26 01:47:43;;;;;;;5.40;4.50;;;9.10;95.50;;;;;;4989185;28;20890;-51
2022/12/26 01:50:27;;;;;;;4.80;4.27;;;9.00;95.20;;;;;;4984832;28;20588;-52
2022/12/26 01:52:56;;;;;;;6.40;4.13;;;9.00;95.60;;;;;;4987374;28;20543;-52
2022/12/26 01:55:23;;;;;;;5.33;3.60;;;9.00;95.40;;;;;;4989668;28;20579;-52
2022/12/26 01:57:55;;;;;;;5.97;4.33;;;9.10;94.20;;;;;;4993274;28;21009;-50
2022/12/26 02:00:21;;;;;;;4.50;3.30;;;9.10;94.10;;;;;;4988188;28;20548;-51
2022/12/26 02:05:34;;;;;;;8.03;3.10;;;9.10;92.10;;;;;;4987382;28;20941;-50
2022/12/26 02:08:03;;;;;;;5.00;4.50;;;9.10;91.30;;;;;;4993117;28;20496;-52
2022/12/26 02:10:33;;;;;;;4.47;3.43;;;9.10;90.00;;;;;;4988806;28;20483;-52
2022/12/26 02:13:00;;;;;;;3.87;3.43;;;9.10;87.30;;;;;;4992144;28;20543;-51
2022/12/26 02:15:27;;;;;;;3.10;2.90;;;9.10;86.70;;;;;;4992245;28;20516;-52
2022/12/26 02:17:55;;;;;;;3.57;3.27;;;9.10;86.00;;;;;;4991777;28;20551;-51
2022/12/26 02:20:24;;;;;;;3.60;3.40;;;9.10;84.10;;;;;;4991201;28;20551;-50
2022/12/26 02:23:36;;;;;;;8.63;3.43;;;9.10;82.00;;;;;;4992203;28;20542;-52
2022/12/26 02:26:44;;;;;;;4.10;3.27;;;9.10;80.50;;;;;;4988071;28;20543;-51
2022/12/26 02:29:47;;;;;;;3.60;3.30;;;9.20;75.50;;;;;;4988439;28;20549;-50
2022/12/26 02:32:21;;;;;;;3.63;3.30;;;9.20;70.70;;;;;;4984750;28;20539;-51
2022/12/26 02:34:58;;;;;;;4.63;3.57;;;9.20;65.50;;;;;;4991800;28;20929;-51
2022/12/26 02:37:43;;;;;;;5.23;3.47;;;9.20;63.00;;;;;;4991377;28;20542;-51
2022/12/26 02:40:26;;;;;;;3.53;3.23;;;9.30;59.00;;;;;;4993599;28;20559;-50
2022/12/26 02:42:58;;;;;;;3.23;3.07;;;9.30;56.00;;;;;;4989883;28;20555;-51
2022/12/26 02:48:23;;;;;;;3.40;3.10;;;9.30;52.00;;;;;;4977522;28;20456;-52
2022/12/26 03:13:52;;;;;;;5.97;3.40;;;9.40;38.60;;;;;;4988155;28;20455;-51
2022/12/26 03:19:08;;;;;;;3.23;3.03;;;9.40;34.30;;;;;;4992470;28;20460;-51
2022/12/26 03:21:40;;;;;;;4.20;3.90;;;9.40;32.50;;;;;;4991651;28;20551;-50
2022/12/26 03:24:10;;;;;;;3.67;3.37;;;9.40;30.50;;;;;;4994266;28;20472;-52
2022/12/26 03:26:42;;;;;;;4.17;3.27;;;9.40;28.80;;;;;;4987623;28;20507;-50
2022/12/26 03:31:56;;;;;;;5.20;3.37;;;9.50;26.10;;;;;;4988499;28;20546;-50
2022/12/26 03:34:23;;;;;;;4.87;3.50;;;9.50;25.10;;;;;;4991405;28;20921;-50
2022/12/26 03:37:01;;;;;;;4.07;3.67;;;9.50;24.20;;;;;;4993425;28;20515;-52
2022/12/26 04:19:36;;;;;;;5.33;3.67;;;9.70;94.10;;;;;;4996688;28;20479;-52
2022/12/26 04:44:44;;;;;;;9.27;3.10;;;9.60;81.90;;;;;;4947573;29;20594;-53
2022/12/26 04:47:11;;;;;;;3.63;2.90;;;9.60;21.60;;;;;;4953179;29;20561;-53
2022/12/26 04:52:53;;;;;;;5.13;3.00;;;9.60;21.40;;;;;;4993651;28;20440;-53
2022/12/26 04:55:17;;;;;;;3.60;3.10;;;9.70;23.90;;;;;;4987387;28;20480;-53
2022/12/26 04:57:43;;;;;;;4.23;3.47;;;9.60;24.40;;;;;;4987765;28;20619;-53
2022/12/26 05:00:12;;;;;;;6.77;2.97;;;9.70;27.20;;;;;;4993793;28;20619;-52
2022/12/26 05:11:03;;;;;;;8.70;3.30;;;9.60;28.30;;;;;;4989745;28;20467;-53
2022/12/26 05:13:29;;;;;;;2.90;2.70;;;9.60;28.50;;;;;;4991550;28;20504;-54
2022/12/26 05:29:38;;;;;;;4.00;3.60;;;9.60;33.10;;;;;;4993523;28;21086;-53
2022/12/26 05:32:06;;;;;;;3.53;3.30;;;9.60;34.20;;;;;;4984901;28;21071;-52
2022/12/26 05:34:32;;;;;;;4.10;3.53;;;9.60;34.20;;;;;;4991186;28;20552;-53
2022/12/26 05:36:59;;;;;;;4.10;3.80;;;9.60;35.20;;;;;;4991743;28;20568;-54
2022/12/26 05:39:25;;;;;;;5.10;3.67;;;9.60;35.50;;;;;;4992370;28;20967;-53
2022/12/26 05:41:52;;;;;;;3.10;2.90;;;9.60;38.50;;;;;;4983264;28;21427;-54
2022/12/26 05:44:18;;;;;;;4.30;3.60;;;9.60;36.40;;;;;;4989408;28;20552;-54
2022/12/26 05:46:45;;;;;;;3.50;3.20;;;9.60;37.40;;;;;;4989413;28;20567;-54
2022/12/26 05:49:13;;;;;;;4.03;3.73;;;9.60;36.90;;;;;;4997082;28;20448;-54
2022/12/26 05:51:40;;;;;;;4.13;3.67;;;9.50;37.20;;;;;;4987694;28;20973;-52
2022/12/26 05:54:06;;;;;;;4.43;3.70;;;9.50;39.70;;;;;;4991530;28;20548;-53
2022/12/26 05:56:33;;;;;;;3.30;3.00;;;9.60;39.60;;;;;;4985732;28;20489;-53
2022/12/26 05:59:00;;;;;;;3.33;3.03;;;9.50;39.60;;;;;;4980884;28;21033;-53
2022/12/26 06:01:28;;;;;;;4.60;3.53;;;9.50;40.50;;;;;;4992300;28;20547;-54
2022/12/26 06:03:56;;;;;;;6.27;5.77;;;9.50;41.70;;;;;;4990880;28;20539;-54
2022/12/26 06:06:25;;;;;;;8.40;4.53;;;9.50;41.90;;;;;;4989643;28;20964;-54
2022/12/26 06:08:54;;;;;;;3.77;3.43;;;9.50;41.90;;;;;;4990176;28;20500;-54
2022/12/26 06:11:21;;;;;;;4.90;3.57;;;9.50;41.90;;;;;;4990186;28;20567;-53
2022/12/26 06:13:48;;;;;;;4.10;3.80;;;9.50;44.00;;;;;;4985945;28;20475;-53
2022/12/26 06:16:17;;;;;;;3.57;3.30;;;9.40;42.50;;;;;;4991867;28;20861;-54
2022/12/26 06:18:44;;;;;;;9.50;3.90;;;9.40;43.70;;;;;;4990707;28;20544;-54
2022/12/26 06:21:12;;;;;;;5.23;3.77;;;9.40;44.90;;;;;;4989465;28;20498;-53
2022/12/26 06:23:40;;;;;;;8.43;4.10;;;9.40;46.30;;;;;;4990356;28;20539;-53
2022/12/26 06:26:09;;;;;;;3.70;3.40;;;9.40;45.50;;;;;;4991543;28;20527;-54
2022/12/26 06:28:36;;;;;;;6.57;3.80;;;9.40;46.30;;;;;;4978249;28;20464;-53
2022/12/26 06:31:03;;;;;;;4.90;3.40;;;9.40;46.40;;;;;;4990617;28;20547;-53
2022/12/26 06:33:30;;;;;;;3.50;3.30;;;9.40;47.10;;;;;;4992177;28;20961;-54
2022/12/26 06:36:02;;;;;;;3.90;3.57;;;9.40;47.10;;;;;;4990692;28;20595;-53
2022/12/26 06:38:29;;;;;;;3.60;3.30;;;9.30;49.20;;;;;;4986709;28;20588;-53
2022/12/26 06:40:57;;;;;;;4.53;3.07;;;9.30;49.20;;;;;;4987029;28;20572;-53
2022/12/26 06:43:23;;;;;;;4.63;3.87;;;9.40;49.90;;;;;;4986532;28;20560;-54
2022/12/26 06:45:54;;;;;;;4.87;3.83;;;9.40;50.50;;;;;;4997330;28;20514;-54
2022/12/26 06:48:21;;;;;;;5.47;3.37;;;9.40;50.60;;;;;;4981577;28;20484;-54
2022/12/26 06:50:47;;;;;;;4.30;3.87;;;9.30;50.30;;;;;;4984628;28;20592;-54
2022/12/26 06:53:14;;;;;;;3.93;3.60;;;9.30;50.60;;;;;;4990450;28;20938;-53
2022/12/26 06:55:40;;;;;;;4.80;3.90;;;9.30;50.70;;;;;;4985216;28;20937;-53
2022/12/26 06:58:09;;;;;;;3.70;3.50;;;9.30;51.30;;;;;;4993906;28;21014;-54
2022/12/26 07:00:36;;;;;;;12.17;3.30;;;9.30;52.30;;;;;;4986029;28;20465;-61
2022/12/26 07:03:02;;;;;;;4.40;3.23;;;9.30;52.40;;;;;;4992873;28;20496;-53
2022/12/26 07:05:29;;;;;;;3.80;3.50;;;9.30;52.10;;;;;;4989149;28;21294;-53
2022/12/26 07:07:55;;;;;;;3.63;3.20;;;9.30;53.40;;;;;;4990128;28;20562;-53
2022/12/26 07:10:22;;;;;;;3.60;3.17;;;9.30;53.30;;;;;;4990448;28;20885;-53
2022/12/26 07:12:48;;;;;;;3.93;3.60;;;9.30;52.80;;;;;;4991444;28;20922;-54
2022/12/26 07:15:16;;;;;;;3.80;3.60;;;9.30;52.00;;;;;;4987981;28;20543;-52
2022/12/26 07:17:43;;;;;;;4.07;3.77;;;9.30;51.70;;;;;;4984420;28;20493;-52
2022/12/26 07:20:11;;;;;;;4.53;4.00;;;9.30;51.30;;;;;;4990596;28;20492;-53
2022/12/26 07:22:38;;;;;;;6.50;3.40;;;9.30;52.10;;;;;;4989473;28;20542;-53
2022/12/26 07:25:05;;;;;;;4.00;3.70;;;9.30;51.10;;;;;;4988126;28;20463;-54
2022/12/26 07:27:31;;;;;;;4.33;3.97;;;9.30;51.10;;;;;;4989340;28;20591;-53
2022/12/26 07:29:58;;;;;;;3.77;3.37;;;9.30;52.20;;;;;;4989022;28;20550;-52
2022/12/26 07:32:27;;;;;;;3.63;3.33;;;9.40;51.00;;;;;;4989404;28;20773;-52
2022/12/26 07:34:53;;;;;;;3.37;3.07;;;9.40;50.70;;;;;;4988378;28;20554;-53
2022/12/26 07:37:20;;;;;;;4.20;3.90;;;9.30;50.20;;;;;;4991761;28;21077;-53
2022/12/26 07:39:46;;;;;;;3.70;3.40;;;9.30;50.70;;;;;;4995173;28;20551;-53
2022/12/26 07:42:13;;;;;;;3.57;3.37;;;9.40;51.00;;;;;;4994210;28;20546;-54
2022/12/26 07:44:39;;;;;;;4.60;4.10;;;9.40;50.60;;;;;;4993675;28;20544;-54
2022/12/26 07:47:06;;;;;;;4.70;4.10;;;9.40;49.60;;;;;;4995432;28;20506;-53
2022/12/26 07:49:33;;;;;;;4.40;4.00;;;9.40;48.80;;;;;;4994134;28;21021;-54
2022/12/26 07:52:01;;;;;;;5.10;3.57;;;9.40;48.40;;;;;;4995436;28;20551;-53
2022/12/26 07:54:28;;;;;;;3.20;3.00;;;9.40;48.30;;;;;;4994461;28;20468;-54
2022/12/26 07:56:56;;;;;;;4.43;4.03;;;9.40;48.50;;;;;;4994133;28;20491;-54
2022/12/26 07:59:22;;;;;;;4.70;4.30;;;9.40;47.10;;;;;;4992379;28;20559;-54
2022/12/26 08:01:49;;;;;;;4.70;3.38;;;9.40;46.40;;;;;;4992407;28;20543;-54
2022/12/26 08:04:15;;;;;;;5.37;4.97;;;9.40;45.80;;;;;;4997188;28;20233;-55
2022/12/26 08:06:45;;;;;;;4.47;4.17;;;9.40;45.20;;;;;;5000235;28;20491;-55
2022/12/26 08:09:15;;;;;;;3.80;3.50;;;9.40;44.90;;;;;;4999664;28;20504;-55
2022/12/26 08:11:42;;;;;;;3.80;3.40;;;9.40;44.40;;;;;;5000621;28;20816;-55
2022/12/26 08:14:11;;;;;;;4.00;3.60;;;9.40;43.90;;;;;;4993488;28;20579;-54
2022/12/26 08:16:37;;;;;;;4.20;3.80;;;9.40;42.80;;;;;;4993576;28;20484;-54
2022/12/26 08:19:04;;;;;;;3.97;3.67;;;9.40;42.20;;;;;;4992974;28;20496;-55
2022/12/26 08:21:30;;;;;;;3.90;3.60;;;9.40;41.80;;;;;;4994295;28;20896;-54
2022/12/26 08:23:58;;;;;;;5.60;4.33;;;9.40;41.90;;;;;;4991556;28;20501;-54
2022/12/26 08:26:25;;;;;;;3.70;3.50;;;9.40;41.90;;;;;;4997969;28;20550;-53
2022/12/26 08:28:52;;;;;;;4.30;3.93;;;9.40;41.90;;;;;;4993383;28;20465;-53
2022/12/26 08:31:20;;;;;;;3.77;3.50;;;9.40;41.10;;;;;;4994096;28;20548;-54
2022/12/26 08:33:47;;;;;;;4.60;4.20;;;9.40;40.60;;;;;;4993070;28;20496;-55
2022/12/26 08:36:15;;;;;;;4.37;3.97;;;9.40;39.70;;;;;;4987113;28;20568;-54
2022/12/26 08:38:42;;;;;;;5.47;3.90;;;9.30;39.60;;;;;;4992832;28;20461;-54
2022/12/26 08:41:10;;;;;;;3.70;3.40;;;9.40;39.80;;;;;;4987650;28;20968;-54
2022/12/26 08:43:37;;;;;;;6.40;5.80;;;9.40;39.60;;;;;;4993986;28;20468;-54
2022/12/26 08:46:05;;;;;;;3.87;3.57;;;9.30;39.20;;;;;;4991907;28;20500;-54
2022/12/26 08:48:33;;;;;;;8.53;3.83;;;9.30;39.60;;;;;;4991910;28;20572;-54
2022/12/26 08:51:01;;;;;;;3.90;3.60;;;9.30;40.30;;;;;;4992931;28;21055;-55
2022/12/26 08:53:28;;;;;;;3.80;3.50;;;9.40;40.50;;;;;;4995599;28;20496;-53
2022/12/26 08:55:55;;;;;;;5.60;4.30;;;9.40;40.80;;;;;;4994026;28;20522;-53
2022/12/26 08:58:23;;;;;;;11.17;3.87;;;9.40;39.70;;;;;;4990388;28;20582;-55
2022/12/26 09:00:50;;;;;;;3.93;3.63;;;9.40;39.80;;;;;;4989599;28;20532;-54
2022/12/26 09:03:16;;;;;;;42.07;25.83;;;9.40;39.60;;;;;;4995968;28;20481;-55
2022/12/26 09:05:43;;;;;;;5.83;5.23;;;9.40;39.50;;;;;;4994898;28;20487;-54
2022/12/26 09:08:10;;;;;;;5.00;4.50;;;9.40;39.50;;;;;;4993160;28;20559;-53
2022/12/26 09:10:37;;;;;;;4.33;4.00;;;9.40;39.70;;;;;;4990910;28;20844;-55
2022/12/26 09:13:03;;;;;;;4.87;4.47;;;9.40;39.30;;;;;;4991822;28;20488;-54
2022/12/26 09:15:31;;;;;;;4.10;3.80;;;9.40;38.70;;;;;;4989747;28;20509;-54
2022/12/26 09:17:57;;;;;;;4.23;3.90;;;9.50;39.00;;;;;;4984527;28;20571;-53
2022/12/26 09:20:24;;;;;;;8.47;7.67;;;9.40;39.00;;;;;;4993065;28;21322;-52
2022/12/26 09:22:50;;;;;;;4.30;3.90;;;9.40;38.70;;;;;;5001035;28;20595;-54
2022/12/26 09:25:17;;;;;;;4.03;3.83;;;9.40;38.40;;;;;;4985614;28;20908;-53
2022/12/26 09:27:44;;;;;;;4.67;4.37;;;9.50;38.30;;;;;;5000518;28;20517;-53
2022/12/26 09:30:12;;;;;;;3.87;3.50;;;9.40;38.00;;;;;;4984952;28;20461;-53
2022/12/26 09:32:40;;;;;;;4.13;3.83;;;9.50;37.40;;;;;;4985918;28;20495;-54
2022/12/26 09:35:07;;;;;;;4.07;3.67;;;9.50;36.40;;;;;;4991530;28;20491;-54
2022/12/26 09:37:34;;;;;;;4.07;3.87;;;9.50;35.60;;;;;;4990822;28;20578;-53
2022/12/26 09:40:03;;;;;;;5.10;4.70;;;9.50;35.10;;;;;;4989736;28;20471;-54
2022/12/26 09:42:37;;;;;;;4.23;3.03;;;9.50;34.40;;;;;;4981000;28;20464;-54
2022/12/26 09:45:12;;;;;;;3.33;3.13;;;9.50;33.80;;;;;;4976160;28;20528;-54
2022/12/26 09:47:49;;;;;;;3.80;3.50;;;9.50;33.10;;;;;;4984442;28;20921;-54
2022/12/26 09:50:24;;;;;;;3.67;3.40;;;9.50;29.90;;;;;;4990090;28;20964;-54
2022/12/26 09:52:54;;;;;;;3.10;2.53;;;9.50;29.50;;;;;;4986885;28;20537;-53
2022/12/26 09:55:38;;;;;;;3.37;3.07;;;9.50;27.80;;;;;;4993047;28;20460;-54
2022/12/26 09:58:11;;;;;;;5.57;3.40;;;9.60;26.70;;;;;;4984912;28;20572;-54
2022/12/26 10:03:14;;;;;;;3.80;3.40;;;9.80;21.00;;;;;;4999364;28;20467;-50
2022/12/26 10:05:55;;;;;;;12.73;4.50;;;9.80;75.00;;;;;;5003157;28;20525;-52
2022/12/26 10:08:28;;;;;;;3.60;3.40;;;9.80;99.90;;;;;;4994685;28;20544;-51
2022/12/26 10:11:00;;;;;;;3.90;3.60;;;9.80;99.90;;;;;;4988169;28;21010;-51
2022/12/26 10:13:36;;;;;;;4.50;4.03;;;9.80;99.90;;;;;;4979792;28;20991;-51
2022/12/26 10:16:08;;;;;;;4.27;3.87;;;9.80;99.90;;;;;;4978846;28;20457;-52
2022/12/26 10:18:43;;;;;;;3.87;3.57;;;9.80;99.90;;;;;;4973915;28;20568;-52
2022/12/26 10:21:25;;;;;;;3.70;3.50;;;9.70;99.90;;;;;;4976047;28;21036;-51
2022/12/26 10:23:57;;;;;;;3.30;3.10;;;9.70;99.90;;;;;;4970570;28;20894;-51
2022/12/26 10:26:27;;;;;;;3.17;2.97;;;9.70;99.90;;;;;;4970095;28;20568;-52
2022/12/26 10:28:59;;;;;;;4.00;3.80;;;9.70;96.40;;;;;;4973638;28;20489;-51
2022/12/26 10:31:29;;;;;;;3.60;3.30;;;9.60;91.80;;;;;;4974761;28;20886;-51
2022/12/26 10:34:03;;;;;;;4.57;3.83;;;9.60;92.00;;;;;;4980598;28;20543;-51
2022/12/26 10:36:36;;;;;;;3.70;3.40;;;9.60;89.80;;;;;;4972819;28;20558;-51
2022/12/26 10:39:08;;;;;;;3.30;3.10;;;9.60;90.40;;;;;;4969987;28;20501;-51
2022/12/26 10:41:42;;;;;;;3.57;3.33;;;9.50;73.70;;;;;;4966714;28;20581;-50
2022/12/26 10:44:10;;;;;;;5.30;3.50;;;9.50;20.60;;;;;;4968986;28;20509;-50
2022/12/26 10:47:07;;;;;;;3.10;2.90;;;9.50;20.90;;;;;;4977746;28;20543;-50
2022/12/26 10:49:35;;;;;;;3.50;3.20;;;9.50;21.50;;;;;;4973299;28;20549;-51
2022/12/26 10:52:03;;;;;;;3.10;2.90;;;9.50;20.20;;;;;;4978838;28;21093;-52
2022/12/26 10:54:30;;;;;;;3.03;2.83;;;9.40;75.10;;;;;;4968146;28;20548;-51
2022/12/26 10:56:58;;;;;;;3.30;3.10;;;9.40;82.10;;;;;;4972021;28;20568;-50
2022/12/26 10:59:35;;;;;;;3.63;3.43;;;9.40;83.50;;;;;;4968311;28;20469;-50
2022/12/26 11:02:13;;;;;;;3.80;3.50;;;9.40;86.40;;;;;;4972819;28;20520;-51
2022/12/26 11:04:57;;;;;;;4.27;3.87;;;9.50;89.70;;;;;;4958815;28;20548;-51
2022/12/26 11:07:25;;;;;;;3.63;3.33;;;9.40;90.80;;;;;;4970286;28;20544;-52
2022/12/26 11:09:54;;;;;;;3.67;3.37;;;9.40;88.30;;;;;;4975417;28;20511;-51
2022/12/26 11:12:27;;;;;;;5.10;4.60;;;9.40;93.50;;;;;;4968488;28;20481;-50
2022/12/26 11:14:58;;;;;;;3.20;3.00;;;9.40;99.90;;;;;;4976439;28;20552;-51
2022/12/26 11:17:27;;;;;;;4.33;3.37;;;9.40;99.90;;;;;;4973614;28;20588;-51
2022/12/26 11:23:20;;;;;;;3.20;3.10;;;9.40;99.90;;;;;;5097556;27;20596;-51
2022/12/26 11:25:49;;;;;;;3.80;3.50;;;9.40;99.90;;;;;;5097607;28;20523;-51
2022/12/26 11:28:24;;;;;;;3.50;3.33;;;9.40;99.90;;;;;;5092276;28;20943;-51
2022/12/26 11:30:50;;;;;;;6.90;4.23;;;9.40;99.90;;;;;;5093602;28;21041;-51
2022/12/26 11:33:23;;;;;;;3.37;3.17;;;9.40;99.90;;;;;;5098108;28;20487;-51
2022/12/26 11:35:53;;;;;;;3.07;2.87;;;9.40;99.90;;;;;;5097022;28;20530;-52
2022/12/26 11:38:38;;;;;;;3.30;3.10;;;9.40;99.90;;;;;;5105206;28;20507;-51
2022/12/26 11:43:56;;;;;;;4.00;3.60;;;9.40;96.20;;;;;;5087593;28;20444;-50
2022/12/26 11:46:35;;;;;;;3.47;2.90;;;9.50;97.30;;;;;;5098679;28;20556;-52
2022/12/26 11:49:02;;;;;;;3.30;3.10;;;9.60;93.30;;;;;;5095815;28;20482;-50
2022/12/26 11:51:39;;;;;;;3.90;3.50;;;9.60;20.30;;;;;;5086263;28;20507;-51
2022/12/26 11:54:27;;;;;;;3.07;2.87;;;9.70;21.30;;;;;;5095909;28;20456;-50
2022/12/26 11:57:17;;;;;;;3.07;2.87;;;9.70;24.00;;;;;;5096773;28;20479;-50
2022/12/26 11:59:45;;;;;;;3.17;3.00;;;9.70;30.50;;;;;;5099142;28;20456;-50
2022/12/26 12:02:17;;;;;;;4.13;3.80;;;9.70;30.80;;;;;;5093445;28;21077;-50
2022/12/26 12:04:45;;;;;;;2.80;2.60;;;9.70;30.40;;;;;;5096436;28;20464;-50
2022/12/26 12:07:26;;;;;;;3.17;2.97;;;9.70;37.10;;;;;;5099035;28;21193;-50
2022/12/26 12:10:02;;;;;;;3.57;3.27;;;9.60;33.20;;;;;;5096722;28;20537;-50
2022/12/26 12:12:35;;;;;;;2.63;2.43;;;9.60;33.20;;;;;;5089480;28;20562;-50
2022/12/26 12:15:11;;;;;;;3.00;2.80;;;9.60;29.60;;;;;;5093827;28;20992;-51
2022/12/26 12:17:48;;;;;;;4.50;4.10;;;9.50;26.50;;;;;;5096071;28;20809;-51
2022/12/26 12:20:29;;;;;;;3.87;3.57;;;9.50;26.20;;;;;;5093087;28;20993;-51
2022/12/26 12:23:15;;;;;;;3.60;3.30;;;9.50;26.20;;;;;;5103627;28;20523;-52
2022/12/26 12:25:56;;;;;;;4.07;3.67;;;9.40;26.10;;;;;;5096737;28;20497;-49
2022/12/26 12:28:46;;;;;;;3.33;3.13;;;9.40;25.20;;;;;;5087888;28;20958;-50
2022/12/26 12:31:20;;;;;;;2.80;2.70;;;9.40;25.20;;;;;;5091611;28;20558;-51
2022/12/26 12:33:52;;;;;;;3.30;3.10;;;9.40;22.70;;;;;;5079311;28;20560;-50
2022/12/26 12:36:25;;;;;;;3.27;2.97;;;9.40;22.00;;;;;;5072180;28;20486;-51
2022/12/26 12:39:01;;;;;;;2.47;2.37;;;9.40;20.60;;;;;;5079370;28;20495;-52
2022/12/26 12:42:09;;;;;;;3.43;3.23;;;9.40;22.10;;;;;;5078107;28;20519;-50
2022/12/26 12:44:54;;;;;;;2.50;2.33;;;9.40;22.80;;;;;;4998782;28;20793;-50
2022/12/26 12:47:30;;;;;;;3.17;2.97;;;9.40;21.90;;;;;;5080036;28;20901;-50
2022/12/26 12:50:07;;;;;;;2.73;2.53;;;9.40;21.20;;;;;;5089637;28;20548;-51
2022/12/26 12:52:41;;;;;;;3.23;3.03;;;9.40;20.40;;;;;;5080821;28;20582;-51
2022/12/26 12:55:23;;;;;;;2.83;2.63;;;9.40;21.90;;;;;;5084366;28;20510;-52
2022/12/26 12:57:56;;;;;;;3.17;2.97;;;9.40;21.70;;;;;;5082103;28;20551;-51
2022/12/26 13:00:26;;;;;;;2.80;2.70;;;9.40;24.40;;;;;;5086780;28;20445;-50
2022/12/26 13:02:56;;;;;;;3.30;3.10;;;9.40;24.90;;;;;;5086632;28;21002;-50
2022/12/26 13:05:35;;;;;;;2.47;2.37;;;9.40;24.90;;;;;;5080162;28;20993;-51
2022/12/26 13:08:05;;;;;;;2.70;2.60;;;9.60;25.30;;;;;;5078177;28;20469;-50
2022/12/26 13:10:34;;;;;;;2.50;2.40;;;9.60;31.00;;;;;;5077547;28;20540;-52
2022/12/26 13:13:18;;;;;;;3.20;3.00;;;9.60;33.40;;;;;;5084498;28;20481;-50
2022/12/26 13:15:49;;;;;;;2.77;2.67;;;9.50;32.10;;;;;;5078808;28;20583;-50
2022/12/26 13:18:21;;;;;;;2.37;2.27;;;9.60;33.20;;;;;;5075175;28;20489;-50
2022/12/26 13:20:51;;;;;;;3.27;3.07;;;9.60;35.80;;;;;;5073609;28;20461;-50
2022/12/26 13:26:11;;;;;;;3.37;3.17;;;9.70;36.10;;;;;;5078779;28;20579;-49
2022/12/26 13:28:50;;;;;;;3.40;3.20;;;9.80;37.30;;;;;;5085065;28;20466;-51
2022/12/26 13:31:17;;;;;;;7.37;2.87;;;9.80;48.00;;;;;;5085176;28;20553;-51
2022/12/26 13:33:44;;;;;;;2.53;2.33;;;9.90;49.10;;;;;;5077628;28;20542;-51
2022/12/26 13:36:34;;;;;;;5.47;3.20;;;9.90;58.30;;;;;;5074593;28;21054;-51
2022/12/26 13:39:36;;;;;;;2.90;2.77;;;9.90;54.80;;;;;;5084378;28;20529;-50
2022/12/26 13:45:46;;;;;;;2.13;2.03;;;9.80;55.30;;;;;;5086455;28;20473;-50
2022/12/26 13:49:01;;;;;;;2.80;2.60;;;9.80;48.10;;;;;;5079720;28;20493;-50
2022/12/26 13:51:49;;;;;;;4.47;2.97;;;9.80;46.10;;;;;;5082176;28;20504;-51
2022/12/26 13:54:17;;;;;;;3.73;2.80;;;9.70;42.80;;;;;;5086682;28;20519;-50
2022/12/26 13:57:25;;;;;;;3.40;2.67;;;9.70;41.90;;;;;;5075297;28;20460;-50
2022/12/26 14:00:06;;;;;;;3.03;2.83;;;9.70;41.00;;;;;;5080775;28;20461;-51
2022/12/26 14:03:08;;;;;;;2.90;2.70;;;9.70;36.60;;;;;;5076852;28;20484;-51
2022/12/26 14:05:41;;;;;;;5.73;5.17;;;9.70;37.70;;;;;;5077444;28;20560;-50
2022/12/26 14:08:20;;;;;;;4.60;3.90;;;9.70;35.70;;;;;;5080248;28;20531;-50
2022/12/26 14:10:58;;;;;;;2.80;2.70;;;9.70;35.00;;;;;;5071179;28;20557;-50
2022/12/26 14:13:46;;;;;;;2.87;2.70;;;9.70;35.00;;;;;;5075000;28;21006;-50
2022/12/26 14:16:19;;;;;;;3.67;2.80;;;9.70;34.60;;;;;;5074797;28;20549;-50
2022/12/26 14:18:52;;;;;;;3.50;3.20;;;9.80;37.40;;;;;;5089946;28;20503;-51
2022/12/26 14:21:35;;;;;;;3.13;2.83;;;9.80;38.50;;;;;;5077375;28;20560;-51
2022/12/26 14:24:10;;;;;;;2.43;2.33;;;9.70;38.30;;;;;;5080434;28;20518;-50
2022/12/26 14:26:46;;;;;;;2.90;2.60;;;9.60;37.10;;;;;;5076832;28;20584;-49
2022/12/26 14:29:34;;;;;;;3.73;3.30;;;9.60;34.30;;;;;;5083545;28;20567;-49
2022/12/26 14:32:12;;;;;;;2.60;2.50;;;9.50;34.80;;;;;;5081278;28;21012;-51
2022/12/26 14:34:52;;;;;;;3.20;3.00;;;9.40;34.20;;;;;;5073043;28;20485;-52
2022/12/26 14:37:27;;;;;;;2.97;2.87;;;9.50;26.90;;;;;;5074774;28;20497;-50
2022/12/26 14:40:06;;;;;;;2.90;2.80;;;9.40;30.30;;;;;;5076555;28;20549;-49
2022/12/26 14:43:09;;;;;;;4.60;3.67;;;9.40;31.60;;;;;;5073572;28;21066;-50
2022/12/26 14:45:48;;;;;;;2.70;2.43;;;9.30;30.90;;;;;;5081587;28;20950;-50
2022/12/26 14:48:48;;;;;;;3.10;3.00;;;9.30;26.60;;;;;;5082151;28;20540;-50
2022/12/26 14:51:31;;;;;;;3.67;3.47;;;9.30;27.50;;;;;;5084578;28;20477;-52
2022/12/26 14:54:37;;;;;;;3.47;3.27;;;9.40;30.20;;;;;;5089214;28;20480;-50
2022/12/26 14:57:43;;;;;;;3.60;3.37;;;9.40;32.80;;;;;;5080123;28;20461;-50
2022/12/26 15:00:40;;;;;;;3.37;3.17;;;9.40;30.80;;;;;;5074608;28;20461;-51
2022/12/26 15:03:44;;;;;;;4.30;3.37;;;9.30;30.50;;;;;;5086391;28;20564;-49
2022/12/26 15:06:48;;;;;;;5.50;3.50;;;9.40;34.00;;;;;;5075939;28;20478;-52
2022/12/26 15:09:45;;;;;;;4.10;3.67;;;9.40;34.10;;;;;;5064575;28;20493;-50
2022/12/26 15:12:37;;;;;;;5.83;3.93;;;9.40;35.60;;;;;;5089408;28;20576;-50
2022/12/26 15:15:32;;;;;;;3.97;3.63;;;9.50;40.30;;;;;;5080075;28;20543;-50
2022/12/26 15:18:28;;;;;;;3.17;3.07;;;9.50;41.80;;;;;;5081415;28;20492;-50
2022/12/26 15:21:18;;;;;;;3.33;3.13;;;9.60;43.50;;;;;;5085474;28;20591;-50
2022/12/26 15:24:19;;;;;;;4.00;3.70;;;9.60;45.40;;;;;;5078318;28;20567;-50
2022/12/26 15:27:09;;;;;;;4.10;3.70;;;9.50;47.40;;;;;;5078887;28;20547;-49
2022/12/26 15:30:04;;;;;;;2.83;2.67;;;9.50;51.10;;;;;;5078402;28;20496;-50
2022/12/26 15:32:37;;;;;;;3.20;3.00;;;9.60;55.00;;;;;;5064853;28;20547;-51
2022/12/26 15:35:21;;;;;;;3.13;2.97;;;9.60;58.60;;;;;;5069125;28;20460;-50
2022/12/26 15:38:16;;;;;;;3.30;3.10;;;9.50;58.10;;;;;;5075689;28;20469;-49
2022/12/26 15:40:45;;;;;;;2.83;2.63;;;9.50;55.20;;;;;;5072113;28;21072;-51
2022/12/26 15:43:31;;;;;;;2.80;2.70;;;9.50;54.90;;;;;;5085304;28;20511;-51
2022/12/26 15:46:05;;;;;;;3.00;2.80;;;9.50;57.10;;;;;;5076239;28;20528;-51